Perryville, Maryland
Current Conditions -  °F | °C
As of 2:51 AM on Thursday 23 Oct 2014 (Local Time) from KMTN Reporting Station
Overcast Overcast  
Wind Chill: 54°   Ceiling: 3300
Heat Index: 54°   Visibility: 10mi
Dew Point: 46°   Wind: 14mph
Humidity: 77%   Direction: 290°WNW
Pressure: 29.85"   Gusts: 23mph
Location:  39.56°N, 76.07°W
Report Text: KMTN 230651Z AUTO 29012G20KT 10SM BKN033 BKN049 OVC060 12/08 A2985 RMK AO2
Loading
Personal Weather Stations






























Interactive Weather Map
Tropical Storm Tracking
New forecast layout! Learn more

10-Day Weather Forecast

Advertisements
Track Severe Weather on mobile